Time;durP1;ratioP1;P1;durP2;ratioP2;P2;SDS_P1;SDS_P2;PMS_P1;PMS_P2;Temp;Humidity;BMP_temperature;BMP_pressure;BME280_temperature;BME280_humidity;BME280_pressure;Samples;Min_cycle;Max_cycle;Signal;HPM_P1;HPM_P2
2023/10/22 00:00:12;;;;;;;8.57;3.50;;;10.50;99.90;;;;;;6306720;22;20488;-42
2023/10/22 00:02:38;;;;;;;3.70;3.40;;;10.60;99.90;;;;;;6305942;22;20156;-39
2023/10/22 00:05:05;;;;;;;3.40;3.10;;;10.60;99.90;;;;;;6306431;22;20613;-38
2023/10/22 00:07:31;;;;;;;3.20;2.90;;;10.60;99.90;;;;;;6275795;22;20465;-39
2023/10/22 00:09:57;;;;;;;3.37;2.90;;;10.60;99.90;;;;;;6276399;22;20716;-43
2023/10/22 00:12:23;;;;;;;3.20;2.90;;;10.60;99.90;;;;;;6276100;22;20407;-39
2023/10/22 00:14:48;;;;;;;3.27;3.00;;;10.60;99.90;;;;;;6275429;22;20153;-38
2023/10/22 00:17:14;;;;;;;3.43;3.13;;;10.60;99.90;;;;;;6273308;22;20137;-39
2023/10/22 00:19:39;;;;;;;3.50;3.20;;;10.50;99.90;;;;;;6274126;22;20512;-39
2023/10/22 00:22:05;;;;;;;4.10;3.20;;;10.50;99.90;;;;;;6274421;22;20157;-40
2023/10/22 00:24:31;;;;;;;3.10;2.80;;;10.50;99.90;;;;;;6275807;22;20583;-41
2023/10/22 00:26:58;;;;;;;3.53;3.17;;;10.50;99.90;;;;;;6272050;22;20439;-40
2023/10/22 00:29:24;;;;;;;3.20;3.00;;;10.50;99.90;;;;;;6274309;22;20364;-40
2023/10/22 00:31:49;;;;;;;3.07;2.77;;;10.50;99.90;;;;;;6272037;22;20394;-39
2023/10/22 00:34:15;;;;;;;3.10;2.80;;;10.40;99.90;;;;;;6272878;22;20201;-40
2023/10/22 00:36:41;;;;;;;3.00;2.70;;;10.40;99.90;;;;;;6273141;22;20160;-39
2023/10/22 00:39:07;;;;;;;3.13;2.90;;;10.40;99.90;;;;;;6273109;22;20294;-40
2023/10/22 00:41:32;;;;;;;3.00;2.50;;;10.40;99.90;;;;;;6273788;22;20167;-40
2023/10/22 00:43:58;;;;;;;4.73;2.47;;;10.40;99.90;;;;;;6272967;22;20389;-41
2023/10/22 00:46:25;;;;;;;3.03;2.27;;;10.40;99.90;;;;;;6273940;22;20201;-39
2023/10/22 00:48:51;;;;;;;3.00;2.57;;;10.40;99.90;;;;;;6272728;22;20231;-39
2023/10/22 00:51:18;;;;;;;3.50;3.10;;;10.30;99.90;;;;;;6272597;22;20502;-39
2023/10/22 00:53:45;;;;;;;5.07;3.00;;;10.30;99.90;;;;;;6274129;22;20449;-39
2023/10/22 00:56:11;;;;;;;6.10;2.90;;;10.30;99.90;;;;;;6274816;22;20755;-38
2023/10/22 00:58:37;;;;;;;2.77;2.57;;;10.30;99.90;;;;;;6274963;22;20497;-40
2023/10/22 01:01:06;;;;;;;4.13;2.47;;;10.30;99.90;;;;;;6275612;22;20387;-42
2023/10/22 01:03:33;;;;;;;3.50;2.50;;;10.30;99.90;;;;;;6272428;22;20233;-40
2023/10/22 01:05:58;;;;;;;5.10;2.80;;;10.30;99.90;;;;;;6277459;22;20780;-40
2023/10/22 01:08:24;;;;;;;3.07;2.77;;;10.20;99.90;;;;;;6306492;22;20350;-38
2023/10/22 01:10:50;;;;;;;3.53;2.70;;;10.20;99.90;;;;;;6305935;22;20189;-40
2023/10/22 01:13:16;;;;;;;2.93;2.73;;;10.10;99.90;;;;;;6276945;22;20421;-39
2023/10/22 01:15:41;;;;;;;2.90;2.60;;;10.10;99.90;;;;;;6305380;22;20152;-38
2023/10/22 01:18:08;;;;;;;4.67;2.70;;;10.10;99.90;;;;;;6306927;22;20408;-40
2023/10/22 01:20:33;;;;;;;4.33;2.83;;;10.10;99.90;;;;;;6305652;22;20135;-40
2023/10/22 01:23:00;;;;;;;6.10;2.90;;;10.10;99.90;;;;;;6304946;22;20412;-39
2023/10/22 01:25:25;;;;;;;3.00;2.60;;;10.10;99.90;;;;;;6304964;22;20202;-39
2023/10/22 01:27:51;;;;;;;3.87;2.80;;;10.20;99.90;;;;;;6303325;22;20409;-40
2023/10/22 01:30:17;;;;;;;8.60;2.73;;;10.20;99.90;;;;;;6300408;22;20152;-40
2023/10/22 01:32:42;;;;;;;3.73;3.43;;;10.30;99.90;;;;;;6301611;22;20185;-39
2023/10/22 01:35:08;;;;;;;4.50;2.90;;;10.20;99.90;;;;;;6301867;22;20474;-42
2023/10/22 01:37:36;;;;;;;4.73;2.30;;;10.20;99.90;;;;;;6302334;22;20182;-40
2023/10/22 01:40:03;;;;;;;3.00;2.43;;;10.20;99.90;;;;;;6303061;22;20190;-39
2023/10/22 01:42:29;;;;;;;3.10;2.27;;;10.20;99.90;;;;;;6304033;22;20382;-40
2023/10/22 01:44:55;;;;;;;4.80;2.47;;;10.20;99.90;;;;;;6305141;22;20429;-40
2023/10/22 01:47:21;;;;;;;5.10;2.37;;;10.20;99.90;;;;;;6306911;22;20350;-39
2023/10/22 01:49:47;;;;;;;2.90;2.00;;;10.20;99.90;;;;;;6307591;22;20589;-40
2023/10/22 01:52:12;;;;;;;3.23;2.57;;;10.20;99.90;;;;;;6306458;22;20148;-40
2023/10/22 01:54:39;;;;;;;3.90;2.07;;;10.20;99.90;;;;;;6308355;22;20581;-39
2023/10/22 01:57:04;;;;;;;6.00;3.00;;;10.20;99.90;;;;;;6306851;22;20532;-39
2023/10/22 01:59:30;;;;;;;3.20;2.40;;;10.10;99.90;;;;;;6307249;22;20362;-39
2023/10/22 02:01:56;;;;;;;2.77;2.53;;;10.20;99.90;;;;;;6306129;22;20423;-39
2023/10/22 02:04:22;;;;;;;3.60;2.67;;;10.20;99.90;;;;;;6306074;22;20179;-39
2023/10/22 02:06:47;;;;;;;2.80;2.47;;;10.20;99.90;;;;;;6305483;22;20699;-38
2023/10/22 02:09:15;;;;;;;3.10;2.80;;;10.20;99.90;;;;;;6305462;22;20435;-39
2023/10/22 02:11:40;;;;;;;6.00;3.47;;;10.30;99.90;;;;;;6304651;22;20148;-38
2023/10/22 02:14:06;;;;;;;2.87;2.67;;;10.20;99.90;;;;;;6305733;22;20369;-40
2023/10/22 02:16:32;;;;;;;3.60;3.10;;;10.20;99.90;;;;;;6278934;22;20502;-41
2023/10/22 02:18:57;;;;;;;5.03;3.97;;;10.20;99.90;;;;;;6304719;22;20152;-39
2023/10/22 02:21:26;;;;;;;3.27;2.97;;;10.20;99.90;;;;;;6305988;22;20224;-39
2023/10/22 02:23:52;;;;;;;3.53;2.83;;;10.20;99.90;;;;;;6305905;22;20210;-39
2023/10/22 02:26:18;;;;;;;3.50;3.20;;;10.20;99.90;;;;;;6305909;22;20521;-39
2023/10/22 02:28:44;;;;;;;3.17;2.87;;;10.20;99.90;;;;;;6305784;22;20361;-38
2023/10/22 02:31:10;;;;;;;3.73;3.40;;;10.20;99.90;;;;;;6277320;22;20492;-40
2023/10/22 02:33:38;;;;;;;3.40;3.10;;;10.20;99.90;;;;;;6305823;22;20159;-40
2023/10/22 02:36:04;;;;;;;3.40;3.10;;;10.20;99.90;;;;;;6307185;22;20148;-40
2023/10/22 02:38:29;;;;;;;3.57;3.07;;;10.10;99.90;;;;;;6307719;22;20497;-39
2023/10/22 02:40:55;;;;;;;3.80;2.90;;;10.20;99.90;;;;;;6306995;22;20743;-39
2023/10/22 02:43:21;;;;;;;3.40;3.10;;;10.20;99.90;;;;;;6307163;22;20152;-38
2023/10/22 02:45:53;;;;;;;3.07;2.80;;;10.20;99.90;;;;;;6307305;22;20191;-39
2023/10/22 02:48:19;;;;;;;4.30;3.60;;;10.20;99.90;;;;;;6306166;22;20235;-40
2023/10/22 02:50:45;;;;;;;4.30;4.00;;;10.10;99.90;;;;;;6305910;22;20468;-41
2023/10/22 02:53:11;;;;;;;3.37;3.07;;;10.10;99.90;;;;;;6307823;22;20363;-39
2023/10/22 02:55:36;;;;;;;3.23;2.93;;;10.00;99.90;;;;;;6309017;22;21026;-38
2023/10/22 02:58:02;;;;;;;5.10;3.20;;;10.00;99.90;;;;;;6307391;22;20385;-41
2023/10/22 03:00:28;;;;;;;3.80;3.30;;;10.00;99.90;;;;;;6309362;22;20144;-40
2023/10/22 03:02:53;;;;;;;3.73;3.43;;;10.00;99.90;;;;;;6307843;22;20140;-38
2023/10/22 03:05:19;;;;;;;3.50;3.20;;;10.10;99.90;;;;;;6309263;22;20237;-39
2023/10/22 03:07:45;;;;;;;4.70;3.10;;;10.00;99.90;;;;;;6308916;22;20202;-40
2023/10/22 03:10:10;;;;;;;4.17;3.27;;;10.00;99.90;;;;;;6308449;22;20158;-39
2023/10/22 03:12:36;;;;;;;6.13;3.10;;;9.90;99.90;;;;;;6308006;22;20527;-41
2023/10/22 03:15:03;;;;;;;6.07;3.20;;;9.90;99.90;;;;;;6309391;22;20167;-39
2023/10/22 03:17:29;;;;;;;3.80;3.40;;;10.00;99.90;;;;;;6307642;22;20468;-39
2023/10/22 03:19:54;;;;;;;9.00;3.50;;;10.00;99.90;;;;;;6308291;22;20378;-40
2023/10/22 03:22:20;;;;;;;5.37;3.90;;;10.00;99.90;;;;;;6307394;22;20152;-39
2023/10/22 03:24:52;;;;;;;4.77;2.97;;;9.90;99.90;;;;;;6307789;22;20211;-38
2023/10/22 03:27:18;;;;;;;3.57;3.27;;;9.90;99.90;;;;;;6306374;22;20205;-39
2023/10/22 03:29:46;;;;;;;3.73;3.03;;;9.90;99.90;;;;;;6308282;22;20394;-39
2023/10/22 03:32:12;;;;;;;7.13;5.60;;;9.90;99.90;;;;;;6307881;22;20696;-39
2023/10/22 03:34:38;;;;;;;4.10;3.50;;;10.00;99.90;;;;;;6308174;22;20443;-38
2023/10/22 03:37:08;;;;;;;6.33;2.90;;;10.10;99.90;;;;;;6307624;22;20156;-38
2023/10/22 03:39:36;;;;;;;3.70;3.30;;;10.30;99.90;;;;;;6282418;22;20252;-37
2023/10/22 03:42:01;;;;;;;6.10;4.20;;;10.40;99.90;;;;;;6305456;22;20796;-39
2023/10/22 03:44:27;;;;;;;3.60;3.30;;;10.50;99.90;;;;;;6305521;22;20430;-38
2023/10/22 03:46:52;;;;;;;3.27;2.90;;;10.60;99.90;;;;;;6304940;22;20163;-40
2023/10/22 03:49:18;;;;;;;5.27;3.50;;;10.70;99.90;;;;;;6305932;22;20149;-41
2023/10/22 03:51:44;;;;;;;3.40;3.10;;;10.80;99.90;;;;;;6304511;22;20178;-39
2023/10/22 03:54:09;;;;;;;3.70;3.40;;;10.70;99.90;;;;;;6305407;22;20598;-39
2023/10/22 03:56:35;;;;;;;5.10;3.10;;;10.60;24.90;;;;;;6308045;22;20148;-38
2023/10/22 03:59:01;;;;;;;4.97;3.87;;;10.50;49.70;;;;;;6307178;22;20215;-38
2023/10/22 04:01:27;;;;;;;5.53;3.40;;;10.40;70.50;;;;;;6305587;22;20147;-41
2023/10/22 04:03:52;;;;;;;4.70;4.00;;;10.30;99.90;;;;;;6306450;22;20388;-38
2023/10/22 04:06:18;;;;;;;5.47;3.90;;;10.10;99.90;;;;;;6306331;22;20201;-39
2023/10/22 04:08:44;;;;;;;5.73;3.33;;;10.10;99.90;;;;;;6306128;22;20140;-40
2023/10/22 04:11:10;;;;;;;3.97;3.57;;;10.00;99.90;;;;;;6305676;22;20172;-39
2023/10/22 04:13:35;;;;;;;4.57;3.80;;;10.00;99.90;;;;;;6305945;22;20550;-38
2023/10/22 04:16:01;;;;;;;9.67;4.00;;;9.90;99.90;;;;;;6277846;22;20163;-39
2023/10/22 04:18:26;;;;;;;3.50;3.20;;;9.90;99.90;;;;;;6305345;22;20555;-39
2023/10/22 04:20:52;;;;;;;4.37;3.97;;;9.90;99.90;;;;;;6304684;22;20293;-39
2023/10/22 04:23:18;;;;;;;4.40;4.00;;;9.90;99.90;;;;;;6278779;22;20174;-38
2023/10/22 04:25:45;;;;;;;4.70;4.20;;;9.90;99.90;;;;;;6278080;22;20262;-40
2023/10/22 04:28:12;;;;;;;4.03;3.63;;;9.80;99.90;;;;;;6306265;22;20646;-38
2023/10/22 04:30:39;;;;;;;5.40;3.77;;;9.70;99.90;;;;;;6306485;22;20643;-42
2023/10/22 04:33:05;;;;;;;4.07;3.67;;;9.60;99.90;;;;;;6280823;22;20374;-38
2023/10/22 04:35:34;;;;;;;4.87;3.87;;;9.60;99.90;;;;;;6307150;22;20389;-41
2023/10/22 04:38:01;;;;;;;4.10;3.70;;;9.60;99.90;;;;;;6254729;22;20448;-38
2023/10/22 04:40:33;;;;;;;3.90;3.60;;;9.50;99.90;;;;;;6307050;22;20382;-39
2023/10/22 04:42:59;;;;;;;6.27;3.57;;;9.50;99.90;;;;;;6305755;22;20674;-39
2023/10/22 04:45:25;;;;;;;4.30;3.70;;;9.50;99.90;;;;;;6307469;22;20410;-40
2023/10/22 04:47:51;;;;;;;4.73;3.43;;;9.50;99.90;;;;;;6308444;22;20528;-41
2023/10/22 04:50:17;;;;;;;3.80;3.27;;;9.40;99.90;;;;;;6280668;22;20394;-41
2023/10/22 04:52:42;;;;;;;3.83;3.20;;;9.40;99.90;;;;;;6307755;22;20160;-40
2023/10/22 04:55:11;;;;;;;4.40;4.07;;;9.40;99.90;;;;;;6307536;22;20151;-38
2023/10/22 04:57:37;;;;;;;3.63;3.33;;;9.50;99.90;;;;;;6307366;22;20160;-40
2023/10/22 05:00:07;;;;;;;4.23;3.30;;;9.50;99.90;;;;;;6306684;22;20736;-41
2023/10/22 05:02:33;;;;;;;4.00;3.50;;;9.50;99.90;;;;;;6308297;22;20421;-39
2023/10/22 05:04:58;;;;;;;3.43;3.13;;;9.40;99.90;;;;;;6308839;22;20422;-39
2023/10/22 05:07:24;;;;;;;10.03;4.10;;;9.40;99.90;;;;;;6306748;22;20426;-39
2023/10/22 05:09:50;;;;;;;4.73;3.10;;;9.40;99.90;;;;;;6305932;22;20182;-41
2023/10/22 05:12:16;;;;;;;3.53;3.23;;;9.40;99.90;;;;;;6305120;22;20254;-39
2023/10/22 05:14:41;;;;;;;3.90;2.80;;;9.40;99.90;;;;;;6305741;22;20140;-40
2023/10/22 05:17:07;;;;;;;3.40;2.47;;;9.40;99.90;;;;;;6308591;22;20243;-39
2023/10/22 05:19:33;;;;;;;4.33;2.57;;;9.50;99.90;;;;;;6308640;22;20152;-41
2023/10/22 05:21:59;;;;;;;3.70;2.83;;;9.40;99.90;;;;;;6308619;22;20152;-39
2023/10/22 05:24:25;;;;;;;3.97;2.93;;;9.40;99.90;;;;;;6307868;22;20400;-38
2023/10/22 05:26:51;;;;;;;3.60;2.60;;;9.40;99.90;;;;;;6307094;22;20147;-38
2023/10/22 05:29:17;;;;;;;4.80;2.53;;;9.30;99.90;;;;;;6278798;22;20722;-41
2023/10/22 05:31:42;;;;;;;2.50;2.20;;;9.30;99.90;;;;;;6307826;22;20394;-42
2023/10/22 05:34:08;;;;;;;4.23;2.50;;;9.30;99.90;;;;;;6306743;22;20159;-40
2023/10/22 05:36:34;;;;;;;4.10;2.43;;;9.30;99.90;;;;;;6309011;22;20183;-39
2023/10/22 05:39:01;;;;;;;3.50;2.00;;;9.30;99.10;;;;;;6308761;22;20401;-38
2023/10/22 05:41:27;;;;;;;3.60;2.30;;;9.20;94.70;;;;;;6279694;22;20144;-42
2023/10/22 05:44:01;;;;;;;4.43;1.97;;;9.20;95.20;;;;;;6305111;22;20385;-39
2023/10/22 05:46:28;;;;;;;5.67;2.23;;;9.20;78.20;;;;;;6305564;22;20442;-40
2023/10/22 05:48:53;;;;;;;3.53;2.30;;;9.20;58.90;;;;;;6305123;22;20554;-38
2023/10/22 05:51:19;;;;;;;4.40;2.90;;;9.10;91.30;;;;;;6304698;22;20363;-39
2023/10/22 05:53:45;;;;;;;2.80;1.73;;;9.20;61.50;;;;;;6253059;22;20148;-39
2023/10/22 05:56:11;;;;;;;2.90;1.60;;;9.10;84.80;;;;;;6279972;22;20545;-39
2023/10/22 05:58:38;;;;;;;3.43;2.37;;;9.10;91.40;;;;;;6307233;22;20418;-38
2023/10/22 06:01:04;;;;;;;2.73;1.90;;;9.10;99.90;;;;;;6308904;22;20148;-37
2023/10/22 06:03:30;;;;;;;3.90;2.03;;;9.10;99.90;;;;;;6310642;22;20369;-38
2023/10/22 06:05:56;;;;;;;4.63;2.27;;;9.00;92.60;;;;;;6310206;22;20578;-39
2023/10/22 06:08:22;;;;;;;2.83;1.53;;;9.10;24.80;;;;;;6309298;22;20476;-40
2023/10/22 06:10:47;;;;;;;4.87;1.53;;;9.10;20.20;;;;;;6306654;22;20414;-38
2023/10/22 06:13:14;;;;;;;4.80;2.30;;;9.10;11.20;;;;;;6283046;22;20187;-39
2023/10/22 06:15:42;;;;;;;4.57;2.00;;;9.10;8.30;;;;;;6283440;22;20483;-40
2023/10/22 06:18:09;;;;;;;3.87;1.60;;;9.10;22.40;;;;;;6309091;22;20372;-38
2023/10/22 06:20:35;;;;;;;4.83;2.13;;;9.20;25.90;;;;;;6282635;22;20398;-38
2023/10/22 06:23:03;;;;;;;2.00;1.37;;;9.30;29.10;;;;;;6309718;22;20792;-37
2023/10/22 06:25:29;;;;;;;4.17;2.17;;;9.50;29.70;;;;;;6307925;22;20442;-38
2023/10/22 06:27:55;;;;;;;4.83;1.80;;;9.80;1.00;;;;;;6306304;22;20837;-37
2023/10/22 06:30:27;;;;;;;5.93;3.43;;;10.10;99.90;;;;;;6279199;22;20746;-39
2023/10/22 06:32:56;;;;;;;2.47;1.40;;;10.20;99.90;;;;;;6281133;22;20359;-39
2023/10/22 06:35:23;;;;;;;2.10;1.30;;;10.30;99.90;;;;;;6308923;22;20390;-38
2023/10/22 06:37:51;;;;;;;3.73;1.60;;;10.40;99.90;;;;;;6308168;22;20389;-41
2023/10/22 06:40:17;;;;;;;3.93;1.33;;;10.50;57.40;;;;;;6308405;22;20887;-38
2023/10/22 06:42:43;;;;;;;2.80;1.53;;;10.50;39.50;;;;;;6309039;22;20448;-42
2023/10/22 06:45:09;;;;;;;1.90;1.37;;;10.60;1.00;;;;;;6310023;22;20405;-38
2023/10/22 06:47:38;;;;;;;2.90;1.60;;;10.70;1.00;;;;;;6309421;22;20148;-42
2023/10/22 06:50:08;;;;;;;6.37;2.07;;;10.80;1.00;;;;;;6307042;22;20410;-41
2023/10/22 06:52:34;;;;;;;2.47;1.50;;;10.90;99.90;;;;;;6308244;22;20394;-39
2023/10/22 06:55:00;;;;;;;2.77;1.40;;;10.90;99.90;;;;;;6309009;22;20828;-38
2023/10/22 06:57:26;;;;;;;2.60;1.20;;;11.10;99.90;;;;;;6308970;22;20397;-37
2023/10/22 06:59:52;;;;;;;2.00;1.20;;;11.20;12.60;;;;;;6279680;22;20390;-39
2023/10/22 07:02:19;;;;;;;3.77;1.50;;;11.40;1.00;;;;;;6308502;22;20821;-39
2023/10/22 07:04:47;;;;;;;3.27;1.50;;;11.60;99.90;;;;;;6309704;22;20457;-38
2023/10/22 07:07:13;;;;;;;2.10;1.40;;;11.80;1.00;;;;;;6309335;22;20790;-38
2023/10/22 07:09:39;;;;;;;5.00;1.43;;;12.00;99.90;;;;;;6308363;22;20867;-41
2023/10/22 07:12:05;;;;;;;2.93;1.60;;;12.10;99.90;;;;;;6306054;22;20506;-39
2023/10/22 07:14:30;;;;;;;3.93;2.13;;;12.20;99.90;;;;;;6280269;22;20167;-41
2023/10/22 07:16:56;;;;;;;3.00;1.50;;;12.20;99.90;;;;;;6308102;22;20397;-38
2023/10/22 07:19:22;;;;;;;3.83;1.73;;;12.30;1.00;;;;;;6308818;22;20461;-38
2023/10/22 07:21:48;;;;;;;7.30;1.50;;;12.30;99.90;;;;;;6308605;22;20424;-41
2023/10/22 07:24:13;;;;;;;5.00;1.20;;;12.40;99.90;;;;;;6279401;22;20132;-40
2023/10/22 07:26:39;;;;;;;4.07;1.67;;;12.60;98.00;;;;;;6309568;22;20215;-39
2023/10/22 07:29:05;;;;;;;4.80;1.23;;;12.80;1.00;;;;;;6307984;22;20166;-39
2023/10/22 07:31:31;;;;;;;3.73;1.47;;;13.10;99.90;;;;;;6306642;22;20393;-38
2023/10/22 07:33:56;;;;;;;5.07;1.70;;;13.40;15.10;;;;;;6279937;22;20148;-41
2023/10/22 07:36:22;;;;;;;4.50;1.60;;;13.40;1.00;;;;;;6278203;22;20155;-39
2023/10/22 07:38:51;;;;;;;2.83;1.40;;;13.30;1.00;;;;;;6305940;22;20164;-38
2023/10/22 07:41:18;;;;;;;6.37;1.70;;;13.50;1.00;;;;;;6307665;22;20163;-38
2023/10/22 07:43:44;;;;;;;2.43;1.10;;;13.80;99.90;;;;;;6307700;22;20418;-39
2023/10/22 07:46:10;;;;;;;3.20;1.20;;;14.10;1.00;;;;;;6279734;22;20433;-39
2023/10/22 07:48:37;;;;;;;3.50;1.20;;;14.00;1.00;;;;;;6308556;22;20391;-38
2023/10/22 07:51:15;;;;;;;2.97;1.37;;;14.70;1.00;;;;;;6309349;22;20350;-40
2023/10/22 07:53:42;;;;;;;2.83;1.00;;;15.20;99.90;;;;;;6308531;22;20646;-44
2023/10/22 07:56:09;;;;;;;5.17;1.20;;;15.50;99.90;;;;;;6306476;22;20382;-40
2023/10/22 07:58:36;;;;;;;3.00;1.30;;;15.80;99.90;;;;;;6306221;22;20382;-40
2023/10/22 08:01:02;;;;;;;1.63;1.10;;;16.60;99.90;;;;;;6307852;22;20382;-40
2023/10/22 08:03:31;;;;;;;3.73;1.10;;;16.40;89.50;;;;;;6308129;22;20707;-44
2023/10/22 08:05:57;;;;;;;4.00;1.30;;;16.70;39.40;;;;;;6308359;22;20441;-40
2023/10/22 08:08:23;;;;;;;2.40;1.00;;;16.40;26.10;;;;;;6308242;22;20382;-40
2023/10/22 08:10:49;;;;;;;3.70;1.30;;;17.00;5.40;;;;;;6307498;22;20382;-41
2023/10/22 08:13:15;;;;;;;2.13;1.17;;;17.30;1.00;;;;;;6306675;22;20148;-39
2023/10/22 08:15:41;;;;;;;1.90;1.17;;;17.80;1.00;;;;;;6307812;22;20397;-38
2023/10/22 08:18:07;;;;;;;2.93;1.20;;;18.10;1.00;;;;;;6307083;22;20723;-38
2023/10/22 08:20:33;;;;;;;3.87;1.20;;;18.80;1.00;;;;;;6306772;22;20156;-38
2023/10/22 08:22:58;;;;;;;3.27;1.30;;;19.50;1.00;;;;;;6305872;22;20152;-40
2023/10/22 08:25:24;;;;;;;2.80;0.90;;;19.70;1.00;;;;;;6306040;22;20421;-39
2023/10/22 08:27:50;;;;;;;3.30;1.10;;;19.60;1.00;;;;;;6306875;22;20219;-39
2023/10/22 08:30:15;;;;;;;2.10;1.10;;;20.30;1.00;;;;;;6277091;22;20148;-38
2023/10/22 08:32:46;;;;;;;4.60;1.33;;;20.70;1.00;;;;;;6304928;22;20575;-41
2023/10/22 08:35:12;;;;;;;3.50;1.13;;;21.80;1.00;;;;;;6305366;22;20170;-40
2023/10/22 08:37:38;;;;;;;3.27;1.40;;;21.10;1.00;;;;;;6304767;22;20723;-39
2023/10/22 08:40:07;;;;;;;2.63;1.40;;;21.40;1.00;;;;;;6278349;22;20486;-39
2023/10/22 08:42:33;;;;;;;5.13;1.33;;;21.70;1.00;;;;;;6306383;22;20370;-40
2023/10/22 08:44:58;;;;;;;2.17;1.07;;;22.70;1.00;;;;;;6279612;22;20406;-40
2023/10/22 08:47:25;;;;;;;3.17;1.30;;;22.70;1.00;;;;;;6305683;22;20197;-43
2023/10/22 08:49:51;;;;;;;6.20;1.57;;;21.90;1.00;;;;;;6306788;22;20205;-41
2023/10/22 08:52:17;;;;;;;4.00;1.30;;;21.80;1.00;;;;;;6279614;22;20386;-38
2023/10/22 08:54:46;;;;;;;2.13;1.00;;;21.50;1.00;;;;;;6307080;22;20394;-40
2023/10/22 08:57:12;;;;;;;1.60;0.80;;;21.70;1.00;;;;;;6306862;22;20143;-40
2023/10/22 08:59:38;;;;;;;4.37;1.47;;;22.20;1.00;;;;;;6306086;22;20390;-39
2023/10/22 09:02:08;;;;;;;5.50;1.27;;;22.60;1.00;;;;;;6279776;22;20264;-38
2023/10/22 09:04:34;;;;;;;4.10;1.33;;;23.30;1.00;;;;;;6279759;22;20433;-41
2023/10/22 09:07:00;;;;;;;3.20;1.20;;;23.60;1.00;;;;;;6269874;22;20699;-40
2023/10/22 09:09:29;;;;;;;1.97;1.20;;;23.10;1.00;;;;;;6270007;22;20133;-38
2023/10/22 09:11:56;;;;;;;2.47;1.30;;;23.20;1.00;;;;;;6270337;22;20364;-38
2023/10/22 09:14:22;;;;;;;2.30;1.30;;;23.50;1.00;;;;;;6273430;22;20797;-40
2023/10/22 09:16:49;;;;;;;3.47;1.40;;;23.30;1.00;;;;;;6271569;22;20770;-39
2023/10/22 09:19:37;;;;;;;3.13;1.17;;;22.70;1.00;;;;;;6271985;22;20383;-39
2023/10/22 09:22:07;;;;;;;2.30;1.07;;;23.00;1.00;;;;;;6274507;22;20454;-43
2023/10/22 09:24:34;;;;;;;2.90;1.27;;;24.00;1.00;;;;;;6274186;22;20356;-39
2023/10/22 09:27:00;;;;;;;4.20;1.53;;;23.50;1.00;;;;;;6275488;22;20367;-40
2023/10/22 09:29:26;;;;;;;3.13;1.80;;;24.10;1.00;;;;;;6275158;22;20498;-40
2023/10/22 09:31:53;;;;;;;2.63;1.10;;;24.70;1.00;;;;;;6274892;22;20387;-39
2023/10/22 09:34:31;;;;;;;2.90;1.30;;;24.60;1.00;;;;;;6274729;22;20390;-42
2023/10/22 09:36:57;;;;;;;3.93;1.63;;;23.90;1.00;;;;;;6277587;22;20398;-40
2023/10/22 09:39:37;;;;;;;4.43;1.50;;;24.10;1.00;;;;;;6276364;22;20424;-40
2023/10/22 09:42:04;;;;;;;3.20;1.20;;;23.20;1.00;;;;;;6278232;22;20387;-40
2023/10/22 09:44:33;;;;;;;4.00;1.30;;;22.80;1.00;;;;;;6276062;22;20378;-40
2023/10/22 09:47:01;;;;;;;4.10;1.97;;;22.10;1.00;;;;;;6273904;22;20386;-39
2023/10/22 09:49:32;;;;;;;3.03;2.50;;;21.70;1.00;;;;;;6273365;22;20902;-39
2023/10/22 09:52:00;;;;;;;5.60;4.27;;;22.10;1.00;;;;;;6277182;22;20409;-40
2023/10/22 09:54:37;;;;;;;5.30;4.43;;;20.60;1.00;;;;;;6276341;22;20418;-39
2023/10/22 09:57:07;;;;;;;3.87;2.43;;;20.80;1.00;;;;;;6273950;22;20669;-40
2023/10/22 09:59:34;;;;;;;3.97;1.50;;;20.90;1.00;;;;;;6273039;22;20378;-39
2023/10/22 10:02:00;;;;;;;3.57;1.77;;;21.30;1.00;;;;;;6274980;22;20466;-39
2023/10/22 10:04:26;;;;;;;3.40;1.43;;;20.70;1.00;;;;;;6273416;22;20375;-39
2023/10/22 10:06:55;;;;;;;3.60;1.30;;;20.20;1.00;;;;;;6289751;22;20454;-39
2023/10/22 10:09:23;;;;;;;2.77;1.40;;;19.60;1.00;;;;;;6279500;22;20420;-41
2023/10/22 10:11:50;;;;;;;3.50;1.10;;;19.90;1.00;;;;;;6278840;22;20389;-40
2023/10/22 10:14:36;;;;;;;4.60;1.37;;;20.80;1.00;;;;;;6254662;22;20476;-43
2023/10/22 10:17:03;;;;;;;2.30;1.00;;;21.50;1.00;;;;;;6308372;22;20447;-40
2023/10/22 10:19:29;;;;;;;3.97;1.37;;;21.30;1.00;;;;;;6307479;22;20366;-39
2023/10/22 10:21:55;;;;;;;4.50;1.43;;;22.10;1.00;;;;;;6306396;22;20378;-40
2023/10/22 10:24:26;;;;;;;2.03;1.03;;;22.70;1.00;;;;;;6280153;22;20342;-40
2023/10/22 10:26:57;;;;;;;4.90;1.47;;;22.70;1.00;;;;;;6306729;22;20381;-40
2023/10/22 10:29:32;;;;;;;3.23;0.90;;;22.50;1.00;;;;;;6306692;22;20435;-39
2023/10/22 10:32:13;;;;;;;3.00;1.33;;;22.70;1.00;;;;;;6306210;22;20407;-39
2023/10/22 10:34:40;;;;;;;5.23;1.57;;;22.50;1.00;;;;;;6308421;22;20641;-42
2023/10/22 10:37:12;;;;;;;6.00;2.60;;;21.10;1.00;;;;;;6255493;22;20394;-40
2023/10/22 10:39:39;;;;;;;4.00;1.30;;;21.10;1.00;;;;;;6306992;22;20790;-40
2023/10/22 10:42:05;;;;;;;4.60;1.40;;;21.70;1.00;;;;;;6307045;22;20363;-43
2023/10/22 10:44:31;;;;;;;3.50;1.33;;;20.80;1.00;;;;;;6307721;22;20969;-40
2023/10/22 10:47:21;;;;;;;4.03;1.23;;;20.10;1.00;;;;;;6307839;22;20469;-39
2023/10/22 10:50:10;;;;;;;3.93;1.33;;;19.00;1.00;;;;;;6306586;22;20369;-39
2023/10/22 10:52:41;;;;;;;5.47;1.27;;;18.60;1.00;;;;;;6307276;22;20409;-41
2023/10/22 10:55:19;;;;;;;3.53;1.37;;;19.90;1.00;;;;;;6305198;22;20378;-40
2023/10/22 10:57:50;;;;;;;2.93;1.20;;;21.60;1.00;;;;;;6302909;22;20614;-39
2023/10/22 11:00:20;;;;;;;2.57;1.03;;;23.10;1.00;;;;;;6278061;22;20671;-40
2023/10/22 11:02:48;;;;;;;3.80;1.50;;;23.70;1.00;;;;;;6305930;22;20557;-39
2023/10/22 11:05:14;;;;;;;4.13;1.50;;;24.40;1.00;;;;;;6306024;22;20422;-40
2023/10/22 11:07:43;;;;;;;3.17;1.43;;;25.40;1.00;;;;;;6307776;22;20794;-40
2023/10/22 11:10:12;;;;;;;3.00;1.30;;;26.00;1.00;;;;;;6305830;22;20382;-40
2023/10/22 11:12:38;;;;;;;2.70;1.30;;;25.30;1.00;;;;;;6306891;22;20406;-40
2023/10/22 11:15:05;;;;;;;9.40;6.10;;;24.80;1.00;;;;;;6278143;22;20412;-40
2023/10/22 11:17:30;;;;;;;3.60;1.67;;;25.30;1.00;;;;;;6278488;22;20403;-40
2023/10/22 11:19:56;;;;;;;3.50;1.30;;;25.40;1.00;;;;;;6306910;22;20686;-40
2023/10/22 11:22:23;;;;;;;4.40;3.70;;;25.80;1.00;;;;;;6278630;22;20162;-40
2023/10/22 11:24:51;;;;;;;4.30;1.63;;;26.00;1.00;;;;;;6305270;22;20426;-40
2023/10/22 11:27:16;;;;;;;3.07;1.40;;;26.90;1.00;;;;;;6279075;22;20381;-41
2023/10/22 11:29:49;;;;;;;5.47;1.30;;;25.30;1.00;;;;;;6280290;22;20359;-39
2023/10/22 11:32:20;;;;;;;3.77;1.30;;;25.00;1.00;;;;;;6304114;22;20144;-39
2023/10/22 11:34:52;;;;;;;3.67;1.50;;;25.50;1.00;;;;;;6249560;22;20395;-40
2023/10/22 11:37:19;;;;;;;7.37;1.77;;;25.70;1.00;;;;;;6302836;22;20631;-39
2023/10/22 11:39:46;;;;;;;3.10;1.60;;;25.90;1.00;;;;;;6306041;22;20464;-40
2023/10/22 11:42:13;;;;;;;2.60;1.20;;;27.40;1.00;;;;;;6305635;22;20358;-42
2023/10/22 11:44:43;;;;;;;2.40;1.07;;;27.50;1.00;;;;;;6305136;22;20812;-38
2023/10/22 11:47:26;;;;;;;3.23;0.80;;;27.70;1.00;;;;;;6305167;22;20396;-38
2023/10/22 11:49:53;;;;;;;2.60;1.10;;;26.60;1.00;;;;;;6280671;22;20406;-42
2023/10/22 11:52:46;;;;;;;3.83;1.50;;;25.90;1.00;;;;;;6308311;22;20688;-41
2023/10/22 11:55:11;;;;;;;4.43;1.70;;;25.00;1.00;;;;;;6305134;22;20374;-41
2023/10/22 11:57:38;;;;;;;3.43;1.30;;;26.50;1.00;;;;;;6306825;22;20800;-41
2023/10/22 12:00:11;;;;;;;3.57;1.23;;;27.00;1.00;;;;;;6307968;22;20350;-40
2023/10/22 12:02:37;;;;;;;2.90;1.17;;;27.50;1.00;;;;;;6308795;22;20677;-37
2023/10/22 12:05:03;;;;;;;4.43;1.33;;;28.00;1.00;;;;;;6307418;22;20417;-38
2023/10/22 12:07:29;;;;;;;2.20;1.27;;;28.10;1.00;;;;;;6302973;22;21018;-38
2023/10/22 12:09:55;;;;;;;2.80;1.10;;;27.80;1.00;;;;;;6307238;22;20789;-38
2023/10/22 12:12:20;;;;;;;6.17;1.27;;;28.10;1.00;;;;;;6279117;22;20358;-39
2023/10/22 12:14:47;;;;;;;4.27;1.47;;;27.40;1.00;;;;;;6305779;22;20146;-40
2023/10/22 12:17:12;;;;;;;3.83;1.30;;;26.50;1.00;;;;;;6301687;22;20378;-40
2023/10/22 12:19:39;;;;;;;2.63;1.67;;;27.00;1.00;;;;;;6303681;22;20382;-39
2023/10/22 12:22:05;;;;;;;4.60;1.50;;;27.60;1.00;;;;;;6304763;22;20155;-40
2023/10/22 12:24:31;;;;;;;2.93;1.20;;;27.70;1.00;;;;;;6302836;22;20379;-40
2023/10/22 12:26:57;;;;;;;4.80;1.33;;;26.80;1.00;;;;;;6303846;22;20659;-39
2023/10/22 12:29:23;;;;;;;2.70;0.90;;;25.10;1.00;;;;;;6302892;22;20370;-41
2023/10/22 12:31:48;;;;;;;3.00;0.93;;;25.70;1.00;;;;;;6305096;22;20397;-41
2023/10/22 12:34:14;;;;;;;4.30;1.73;;;26.00;1.00;;;;;;6277853;22;20217;-40
2023/10/22 12:36:40;;;;;;;3.30;0.90;;;24.70;1.00;;;;;;6276986;22;20452;-40
2023/10/22 12:39:07;;;;;;;4.10;1.40;;;22.90;1.00;;;;;;6306226;22;20144;-39
2023/10/22 12:41:34;;;;;;;4.87;1.27;;;21.40;1.00;;;;;;6307037;22;20152;-39
2023/10/22 12:44:00;;;;;;;2.10;1.00;;;20.50;1.00;;;;;;6308068;22;20400;-39
2023/10/22 12:46:26;;;;;;;3.17;0.87;;;19.60;1.00;;;;;;6306983;22;20461;-40
2023/10/22 12:48:52;;;;;;;4.67;0.97;;;19.60;1.00;;;;;;6307141;22;20148;-40
2023/10/22 12:51:19;;;;;;;4.13;1.43;;;20.80;1.00;;;;;;6306889;22;20785;-40